createdAt,value
2023-04-29T00:00:59.688Z,12.02
2023-04-29T00:03:29.532Z,12.11
2023-04-29T00:05:57.614Z,12.42
2023-04-29T00:08:25.621Z,12.41
2023-04-29T00:10:55.410Z,12.32
2023-04-29T00:13:23.217Z,12.01
2023-04-29T00:15:50.920Z,11.87
2023-04-29T00:18:18.753Z,11.96
2023-04-29T00:20:46.439Z,11.76
2023-04-29T00:23:14.174Z,11.79
2023-04-29T00:25:42.085Z,11.98
2023-04-29T00:28:11.304Z,11.83
2023-04-29T00:30:39.110Z,11.76
2023-04-29T00:33:06.906Z,11.76
2023-04-29T00:35:36.479Z,11.86
2023-04-29T00:38:04.341Z,11.94
2023-04-29T00:40:32.163Z,11.79
2023-04-29T00:42:59.949Z,11.72
2023-04-29T00:45:29.481Z,11.68
2023-04-29T00:47:57.534Z,11.80
2023-04-29T00:50:26.094Z,11.65
2023-04-29T00:52:53.882Z,11.56
2023-04-29T00:55:22.162Z,11.48
2023-04-29T00:57:52.555Z,11.38
2023-04-29T01:00:20.705Z,11.67
2023-04-29T01:02:51.329Z,11.57
2023-04-29T01:05:19.376Z,11.50
2023-04-29T01:07:57.990Z,11.52
2023-04-29T01:10:29.828Z,11.54
2023-04-29T01:13:08.044Z,11.48
2023-04-29T01:15:43.417Z,11.38
2023-04-29T01:18:21.884Z,11.42
2023-04-29T01:20:50.310Z,11.46
2023-04-29T01:23:18.151Z,11.39
2023-04-29T01:25:48.950Z,11.24
2023-04-29T01:28:40.012Z,11.32
2023-04-29T01:31:12.089Z,11.12
2023-04-29T01:33:45.577Z,11.31
2023-04-29T01:36:23.798Z,11.30
2023-04-29T01:39:01.625Z,11.66
2023-04-29T01:41:39.229Z,11.20
2023-04-29T01:44:19.694Z,11.19
2023-04-29T01:46:54.201Z,11.30
2023-04-29T01:49:26.468Z,11.42
2023-04-29T01:51:54.451Z,11.22
2023-04-29T01:54:23.172Z,11.08
2023-04-29T01:56:53.061Z,11.18
2023-04-29T01:59:30.273Z,11.03
2023-04-29T02:02:34.431Z,10.91
2023-04-29T02:05:12.502Z,11.18
2023-04-29T02:07:44.711Z,10.87
2023-04-29T02:10:13.058Z,10.87
2023-04-29T02:12:45.125Z,10.89
2023-04-29T02:15:13.257Z,10.94
2023-04-29T02:17:41.434Z,11.08
2023-04-29T02:20:10.578Z,10.98
2023-04-29T02:22:38.373Z,10.91
2023-04-29T02:25:07.287Z,10.85
2023-04-29T02:27:35.102Z,10.75
2023-04-29T02:30:04.874Z,10.84
2023-04-29T02:32:33.146Z,10.78
2023-04-29T02:35:01.196Z,10.74
2023-04-29T02:37:29.885Z,10.89
2023-04-29T02:39:57.660Z,10.77
2023-04-29T02:42:25.366Z,10.71
2023-04-29T02:44:53.116Z,10.89
2023-04-29T02:47:22.386Z,10.81
2023-04-29T02:49:50.614Z,10.77
2023-04-29T02:52:19.065Z,10.70
2023-04-29T02:54:47.988Z,10.75
2023-04-29T02:57:15.724Z,10.82
2023-04-29T02:59:44.208Z,10.91
2023-04-29T03:02:12.758Z,10.75
2023-04-29T03:04:42.387Z,10.77
2023-04-29T03:07:10.611Z,10.84
2023-04-29T03:09:38.410Z,10.67
2023-04-29T03:12:06.539Z,10.79
2023-04-29T03:14:34.616Z,10.70
2023-04-29T03:17:02.970Z,10.57
2023-04-29T03:19:31.247Z,10.56
2023-04-29T03:22:00.789Z,10.50
2023-04-29T03:24:28.721Z,10.50
2023-04-29T03:26:56.751Z,10.48
2023-04-29T03:29:24.986Z,10.46
2023-04-29T03:31:53.045Z,10.44
2023-04-29T03:34:21.078Z,10.50
2023-04-29T03:36:57.801Z,10.39
2023-04-29T03:39:28.204Z,10.55
2023-04-29T03:41:56.167Z,10.48
2023-04-29T03:44:24.068Z,10.39
2023-04-29T03:46:51.828Z,10.39
2023-04-29T03:49:20.638Z,10.40
2023-04-29T03:51:48.500Z,10.48
2023-04-29T03:54:17.802Z,10.49
2023-04-29T03:56:47.367Z,10.66
2023-04-29T03:59:15.242Z,10.61
2023-04-29T04:01:43.670Z,10.41
2023-04-29T04:04:12.549Z,10.39
2023-04-29T04:06:51.131Z,10.33
2023-04-29T04:09:21.574Z,10.52
2023-04-29T04:11:50.858Z,10.48
2023-04-29T04:14:19.557Z,10.48
2023-04-29T04:16:47.332Z,10.39
2023-04-29T04:19:15.558Z,10.37
2023-04-29T04:21:46.285Z,10.54
2023-04-29T04:24:14.674Z,10.37
2023-04-29T04:26:43.241Z,10.32
2023-04-29T04:29:18.202Z,10.28
2023-04-29T04:32:00.105Z,10.33
2023-04-29T04:34:28.470Z,10.21
2023-04-29T04:36:58.517Z,10.49
2023-04-29T04:39:26.385Z,10.45
2023-04-29T04:41:56.542Z,10.40
2023-04-29T04:44:26.072Z,10.53
2023-04-29T04:47:14.133Z,10.31
2023-04-29T04:49:52.841Z,10.38
2023-04-29T04:52:39.533Z,10.26
2023-04-29T04:55:24.326Z,10.18
2023-04-29T04:57:52.845Z,10.22
2023-04-29T05:00:20.804Z,10.33
2023-04-29T05:02:48.709Z,10.45
2023-04-29T05:05:16.695Z,10.49
2023-04-29T05:07:46.317Z,10.33
2023-04-29T05:10:14.379Z,10.24
2023-04-29T05:12:48.196Z,10.35
2023-04-29T05:15:17.067Z,10.58
2023-04-29T05:17:45.871Z,10.46
2023-04-29T05:20:14.105Z,10.46
2023-04-29T05:22:41.995Z,10.53
2023-04-29T05:25:12.471Z,10.55
2023-04-29T05:27:41.323Z,10.40
2023-04-29T05:30:13.774Z,10.37
2023-04-29T05:32:41.685Z,10.73
2023-04-29T05:35:13.936Z,10.81
2023-04-29T05:37:42.017Z,10.62
2023-04-29T05:40:32.025Z,10.52
2023-04-29T05:43:28.573Z,10.57
2023-04-29T05:45:59.272Z,10.67
2023-04-29T05:48:27.011Z,10.54
2023-04-29T05:50:54.947Z,10.57
2023-04-29T05:53:22.999Z,10.49
2023-04-29T05:55:52.402Z,10.37
2023-04-29T05:58:22.211Z,10.49
2023-04-29T06:00:50.618Z,10.52
2023-04-29T06:03:23.283Z,10.44
2023-04-29T06:06:12.194Z,10.49
2023-04-29T06:08:58.726Z,10.50
2023-04-29T06:11:31.471Z,10.46
2023-04-29T06:13:59.263Z,10.53
2023-04-29T06:16:27.023Z,10.42
2023-04-29T06:18:55.955Z,10.56
2023-04-29T06:21:23.798Z,10.53
2023-04-29T06:23:53.205Z,10.50
2023-04-29T06:26:22.401Z,10.62
2023-04-29T06:28:52.056Z,10.63
2023-04-29T06:31:21.785Z,10.56
2023-04-29T06:33:51.198Z,10.53
2023-04-29T06:36:18.968Z,10.58
2023-04-29T06:38:58.887Z,10.68
2023-04-29T06:41:53.415Z,10.64
2023-04-29T06:44:45.454Z,10.86
2023-04-29T06:47:39.752Z,10.65
2023-04-29T06:50:12.372Z,10.66
2023-04-29T06:52:40.111Z,10.60
2023-04-29T06:55:08.611Z,10.48
2023-04-29T06:57:36.769Z,10.51
2023-04-29T07:00:07.541Z,10.57
2023-04-29T07:02:35.296Z,10.79
2023-04-29T07:05:03.973Z,10.74
2023-04-29T07:07:31.792Z,10.57
2023-04-29T07:10:00.299Z,10.64
2023-04-29T07:12:27.990Z,10.88
2023-04-29T07:14:55.876Z,10.66
2023-04-29T07:17:25.782Z,10.56
2023-04-29T07:19:53.893Z,10.61
2023-04-29T07:22:22.580Z,10.67
2023-04-29T07:24:50.420Z,10.54
2023-04-29T07:27:18.260Z,10.64
2023-04-29T07:29:45.947Z,10.60
2023-04-29T07:32:13.851Z,10.74
2023-04-29T07:34:43.280Z,10.78
2023-04-29T07:37:11.096Z,10.83
2023-04-29T07:39:39.052Z,10.87
2023-04-29T07:42:06.872Z,10.80
2023-04-29T07:44:34.738Z,10.97
2023-04-29T07:47:02.439Z,10.78
2023-04-29T07:49:30.309Z,10.78
2023-04-29T07:52:00.224Z,10.99
2023-04-29T07:54:27.985Z,10.79
2023-04-29T07:56:55.981Z,10.78
2023-04-29T07:59:24.068Z,10.54
2023-04-29T08:01:52.359Z,10.42
2023-04-29T08:04:20.995Z,10.78
2023-04-29T08:06:54.731Z,10.61
2023-04-29T08:09:23.780Z,10.54
2023-04-29T08:11:51.436Z,10.56
2023-04-29T08:14:19.165Z,10.69
2023-04-29T08:16:46.876Z,10.72
2023-04-29T08:19:14.558Z,10.62
2023-04-29T08:21:42.686Z,10.68
2023-04-29T08:24:10.433Z,10.75
2023-04-29T08:26:41.221Z,10.87
2023-04-29T08:29:09.003Z,10.74
2023-04-29T08:31:36.733Z,10.75
2023-04-29T08:34:04.560Z,10.91
2023-04-29T08:36:32.301Z,10.76
2023-04-29T08:38:59.932Z,10.65
2023-04-29T08:41:27.938Z,10.68
2023-04-29T08:43:57.206Z,10.64
2023-04-29T08:46:26.968Z,10.92
2023-04-29T08:48:58.868Z,10.93
2023-04-29T08:51:26.601Z,10.82
2023-04-29T08:53:54.374Z,10.82
2023-04-29T08:56:23.178Z,10.71
2023-04-29T08:58:54.451Z,10.66
2023-04-29T09:01:24.760Z,10.80
2023-04-29T09:03:58.482Z,10.94
2023-04-29T09:06:26.701Z,10.89
2023-04-29T09:08:55.118Z,10.92
2023-04-29T09:11:23.739Z,10.96
2023-04-29T09:13:51.429Z,10.84
2023-04-29T09:16:19.534Z,11.13
2023-04-29T09:18:50.306Z,11.02
2023-04-29T09:21:22.319Z,11.17
2023-04-29T09:23:52.575Z,11.11
2023-04-29T09:26:20.756Z,11.00
2023-04-29T09:28:49.867Z,10.87
2023-04-29T09:31:28.774Z,10.77
2023-04-29T09:33:59.072Z,10.89
2023-04-29T09:36:41.153Z,11.03
2023-04-29T09:39:12.561Z,11.01
2023-04-29T09:41:59.037Z,10.96
2023-04-29T09:44:29.513Z,10.88
2023-04-29T09:47:02.372Z,11.03
2023-04-29T09:49:35.532Z,10.92
2023-04-29T09:52:05.102Z,11.27
2023-04-29T09:54:36.346Z,11.18
2023-04-29T09:57:07.245Z,11.14
2023-04-29T09:59:37.404Z,11.18
2023-04-29T10:02:09.347Z,11.21
2023-04-29T10:04:42.446Z,11.27
2023-04-29T10:07:15.014Z,11.35
2023-04-29T10:09:42.919Z,11.35
2023-04-29T10:12:11.107Z,11.56
2023-04-29T10:14:45.728Z,11.59
2023-04-29T10:17:20.086Z,11.57
2023-04-29T10:19:59.385Z,11.72
2023-04-29T10:22:32.592Z,11.78
2023-04-29T10:25:02.189Z,11.75
2023-04-29T10:27:34.832Z,11.92
2023-04-29T10:30:05.007Z,12.13
2023-04-29T10:32:49.694Z,11.92
2023-04-29T10:35:23.708Z,12.00
2023-04-29T10:37:52.932Z,11.90
2023-04-29T10:40:26.205Z,11.90
2023-04-29T10:42:54.940Z,12.07
2023-04-29T10:45:25.164Z,12.17
2023-04-29T10:48:13.299Z,12.36
2023-04-29T10:51:02.586Z,12.63
2023-04-29T10:53:30.738Z,12.66
2023-04-29T10:56:00.943Z,12.43
2023-04-29T10:58:36.696Z,12.54
2023-04-29T11:01:04.734Z,12.62
2023-04-29T11:03:48.322Z,12.62
2023-04-29T11:06:18.094Z,12.67
2023-04-29T11:08:45.834Z,12.76
2023-04-29T11:11:15.527Z,12.83
2023-04-29T11:13:47.871Z,12.87
2023-04-29T11:16:15.858Z,12.94
2023-04-29T11:19:07.844Z,12.88
2023-04-29T11:21:38.026Z,12.83
2023-04-29T11:24:07.511Z,13.01
2023-04-29T11:26:36.395Z,13.04
2023-04-29T11:29:05.856Z,13.25
2023-04-29T11:31:34.654Z,13.38
2023-04-29T11:34:02.456Z,13.40
2023-04-29T11:36:32.599Z,13.28
2023-04-29T11:39:03.528Z,13.37
2023-04-29T11:41:32.473Z,13.20
2023-04-29T11:44:01.348Z,13.35
2023-04-29T11:46:32.241Z,13.69
2023-04-29T11:49:01.156Z,13.64
2023-04-29T11:51:29.877Z,13.73
2023-04-29T11:53:58.796Z,13.82
2023-04-29T11:56:28.059Z,13.86
2023-04-29T11:58:56.723Z,13.77
2023-04-29T12:01:24.651Z,13.81
2023-04-29T12:03:52.563Z,14.09
2023-04-29T12:06:20.590Z,13.98
2023-04-29T12:08:48.278Z,13.72
2023-04-29T12:11:16.069Z,13.76
2023-04-29T12:13:46.278Z,14.07
2023-04-29T12:16:14.408Z,14.45
2023-04-29T12:18:42.278Z,14.37
2023-04-29T12:21:10.364Z,14.41
2023-04-29T12:23:39.264Z,14.29
2023-04-29T12:26:07.999Z,14.40
2023-04-29T12:28:35.736Z,14.09
2023-04-29T12:31:04.816Z,14.06
2023-04-29T12:33:32.834Z,13.94
2023-04-29T12:36:00.541Z,13.93
2023-04-29T12:38:31.208Z,13.87
2023-04-29T12:41:01.008Z,13.56
2023-04-29T12:43:29.353Z,13.75
2023-04-29T12:46:02.365Z,14.05
2023-04-29T12:48:33.594Z,13.85
2023-04-29T12:51:02.161Z,13.86
2023-04-29T12:53:31.156Z,13.94
2023-04-29T12:55:59.484Z,13.94
2023-04-29T12:58:30.252Z,14.01
2023-04-29T13:00:58.257Z,14.21
2023-04-29T13:03:26.879Z,14.24
2023-04-29T13:05:56.313Z,14.13
2023-04-29T13:08:24.414Z,14.23
2023-04-29T13:10:52.156Z,14.36
2023-04-29T13:13:19.865Z,14.25
2023-04-29T13:15:47.590Z,14.29
2023-04-29T13:18:15.925Z,14.21
2023-04-29T13:20:43.754Z,14.01
2023-04-29T13:23:13.012Z,14.20
2023-04-29T13:25:41.106Z,14.29
2023-04-29T13:28:08.877Z,14.43
2023-04-29T13:30:37.106Z,14.32
2023-04-29T13:33:11.772Z,14.20
2023-04-29T13:35:41.608Z,14.52
2023-04-29T13:38:09.816Z,14.34
2023-04-29T13:40:45.264Z,14.35
2023-04-29T13:43:18.631Z,14.14
2023-04-29T13:45:53.167Z,14.39
2023-04-29T13:54:01.867Z,14.34
2023-04-29T14:01:44.118Z,14.40
2023-04-29T14:04:03.219Z,14.66
2023-04-29T14:06:32.562Z,14.36
2023-04-29T14:09:01.686Z,14.40
2023-04-29T14:11:36.471Z,14.47
2023-04-29T14:14:04.771Z,14.57
2023-04-29T14:16:32.955Z,14.65
2023-04-29T14:19:02.997Z,14.51
2023-04-29T14:21:33.070Z,14.57
2023-04-29T14:24:02.441Z,14.61
2023-04-29T14:26:30.936Z,14.82
2023-04-29T14:29:01.317Z,15.09
2023-04-29T14:31:30.563Z,15.05
2023-04-29T14:33:59.220Z,14.94
2023-04-29T14:36:28.280Z,14.92
2023-04-29T14:38:56.044Z,14.89
2023-04-29T14:41:24.266Z,14.89
2023-04-29T14:43:52.179Z,14.79
2023-04-29T14:46:22.358Z,14.88
2023-04-29T14:48:50.970Z,14.95
2023-04-29T14:51:19.115Z,15.05
2023-04-29T14:53:46.855Z,14.96
2023-04-29T14:56:14.920Z,14.87
2023-04-29T14:58:42.605Z,14.92
2023-04-29T15:01:10.799Z,14.91
2023-04-29T15:03:44.073Z,14.79
2023-04-29T15:06:12.717Z,15.13
2023-04-29T15:08:40.626Z,15.08
2023-04-29T15:11:08.379Z,15.04
2023-04-29T15:13:36.070Z,15.20
2023-04-29T15:16:04.391Z,15.15
2023-04-29T15:18:32.174Z,15.33
2023-04-29T15:21:01.572Z,15.62
2023-04-29T15:23:29.482Z,15.71
2023-04-29T15:25:57.648Z,15.44
2023-04-29T15:28:25.913Z,15.20
2023-04-29T15:30:53.693Z,15.39
2023-04-29T15:33:21.497Z,15.35
2023-04-29T15:35:49.330Z,15.34
2023-04-29T15:38:18.502Z,15.37
2023-04-29T15:40:46.449Z,15.44
2023-04-29T15:43:14.266Z,15.67
2023-04-29T15:45:42.574Z,15.63
2023-04-29T15:48:10.405Z,15.44
2023-04-29T15:50:38.201Z,15.43
2023-04-29T15:53:05.906Z,15.23
2023-04-29T15:55:36.337Z,15.20
2023-04-29T15:58:04.170Z,15.13
2023-04-29T16:00:32.554Z,15.28
2023-04-29T16:03:00.391Z,15.24
2023-04-29T16:05:28.873Z,15.43
2023-04-29T16:07:56.730Z,15.59
2023-04-29T16:10:24.587Z,15.60
2023-04-29T16:12:53.902Z,15.39
2023-04-29T16:15:21.753Z,15.15
2023-04-29T16:17:50.608Z,15.17
2023-04-29T16:20:19.326Z,15.42
2023-04-29T16:22:47.268Z,15.31
2023-04-29T16:25:15.168Z,15.14
2023-04-29T16:27:42.883Z,14.91
2023-04-29T16:30:13.468Z,14.88
2023-04-29T16:32:41.598Z,15.05
2023-04-29T16:35:10.319Z,15.10
2023-04-29T16:37:38.646Z,15.14
2023-04-29T16:40:08.074Z,14.96
2023-04-29T16:42:36.307Z,14.90
2023-04-29T16:45:04.066Z,14.82
2023-04-29T16:47:35.442Z,14.74
2023-04-29T16:50:04.040Z,14.74
2023-04-29T16:52:31.835Z,14.93
2023-04-29T16:55:01.446Z,15.05
2023-04-29T16:57:29.185Z,14.98
2023-04-29T16:59:57.043Z,14.86
2023-04-29T17:02:25.082Z,14.70
2023-04-29T17:04:54.547Z,14.73
2023-04-29T17:07:22.456Z,14.67
2023-04-29T17:09:50.199Z,14.83
2023-04-29T17:12:17.998Z,14.83
2023-04-29T17:14:48.274Z,14.79
2023-04-29T17:17:16.048Z,14.70
2023-04-29T17:19:44.038Z,14.72
2023-04-29T17:22:13.208Z,14.65
2023-04-29T17:24:44.744Z,15.10
2023-04-29T17:27:13.100Z,15.05
2023-04-29T17:29:41.392Z,14.74
2023-04-29T17:32:11.347Z,14.86
2023-04-29T17:34:39.259Z,14.58
2023-04-29T17:37:07.910Z,14.61
2023-04-29T17:39:37.231Z,14.46
2023-04-29T17:42:05.123Z,14.39
2023-04-29T17:44:32.850Z,14.45
2023-04-29T17:47:00.576Z,14.43
2023-04-29T17:49:28.371Z,14.36
2023-04-29T17:51:57.005Z,14.25
2023-04-29T17:54:26.175Z,14.22
2023-04-29T17:56:55.717Z,14.16
2023-04-29T17:59:23.482Z,14.04
2023-04-29T18:01:51.257Z,14.18
2023-04-29T18:04:19.070Z,14.27
2023-04-29T18:06:46.986Z,14.21
2023-04-29T18:09:16.539Z,14.13
2023-04-29T18:11:44.443Z,14.10
2023-04-29T18:14:13.657Z,14.07
2023-04-29T18:16:41.400Z,13.97
2023-04-29T18:19:09.133Z,13.93
2023-04-29T18:21:37.062Z,13.90
2023-04-29T18:24:05.365Z,13.84
2023-04-29T18:26:33.412Z,13.88
2023-04-29T18:29:01.166Z,13.87
2023-04-29T18:31:30.437Z,13.81
2023-04-29T18:33:58.204Z,13.76
2023-04-29T18:36:26.649Z,13.73
2023-04-29T18:38:54.517Z,13.70
2023-04-29T18:41:22.372Z,13.64
2023-04-29T18:43:50.173Z,13.62
2023-04-29T18:46:18.082Z,13.55
2023-04-29T18:48:47.298Z,13.61
2023-04-29T18:51:15.060Z,13.59
2023-04-29T18:53:42.950Z,13.58
2023-04-29T18:56:10.782Z,13.53
2023-04-29T18:58:38.558Z,13.50
2023-04-29T19:01:06.674Z,13.49
2023-04-29T19:03:34.512Z,13.45
2023-04-29T19:06:03.892Z,13.41
2023-04-29T19:08:32.239Z,13.33
2023-04-29T19:11:00.882Z,13.27
2023-04-29T19:13:29.336Z,13.23
2023-04-29T19:15:57.303Z,13.20
2023-04-29T19:18:25.099Z,13.13
2023-04-29T19:20:53.574Z,13.09
2023-04-29T19:23:22.972Z,12.94
2023-04-29T19:25:50.746Z,12.84
2023-04-29T19:28:19.282Z,12.80
2023-04-29T19:30:47.161Z,12.72
2023-04-29T19:33:15.077Z,12.64
2023-04-29T19:35:42.834Z,12.57
2023-04-29T19:38:11.097Z,12.52
2023-04-29T19:40:40.424Z,12.41
2023-04-29T19:43:08.396Z,12.35
2023-04-29T19:45:36.293Z,12.32
2023-04-29T19:48:05.025Z,12.25
2023-04-29T19:50:33.082Z,12.15
2023-04-29T19:53:00.844Z,12.13
2023-04-29T19:55:28.709Z,12.14
2023-04-29T19:57:58.531Z,12.06
2023-04-29T20:00:27.025Z,12.02
2023-04-29T20:02:54.869Z,12.00
2023-04-29T20:05:22.915Z,11.92
2023-04-29T20:07:50.904Z,11.84
2023-04-29T20:10:18.603Z,11.83
2023-04-29T20:12:46.697Z,11.83
2023-04-29T20:15:16.481Z,11.75
2023-04-29T20:17:44.446Z,11.76
2023-04-29T20:20:12.586Z,11.76
2023-04-29T20:22:40.340Z,11.69
2023-04-29T20:25:08.787Z,11.69
2023-04-29T20:27:36.752Z,11.71
2023-04-29T20:30:05.418Z,11.64
2023-04-29T20:32:34.594Z,11.59
2023-04-29T20:35:02.596Z,11.61
2023-04-29T20:37:31.711Z,11.58
2023-04-29T20:39:59.540Z,11.55
2023-04-29T20:42:27.270Z,11.51
2023-04-29T20:44:55.240Z,11.48
2023-04-29T20:47:23.210Z,11.44
2023-04-29T20:49:52.257Z,11.36
2023-04-29T20:52:20.366Z,11.23
2023-04-29T20:54:48.295Z,11.30
2023-04-29T20:57:16.198Z,11.26
2023-04-29T20:59:44.201Z,11.25
2023-04-29T21:02:12.134Z,11.15
2023-04-29T21:04:40.184Z,11.06
2023-04-29T21:07:10.266Z,11.04
2023-04-29T21:09:38.653Z,11.07
2023-04-29T21:12:06.848Z,11.06
2023-04-29T21:14:34.997Z,10.99
2023-04-29T21:17:02.861Z,10.99
2023-04-29T21:19:30.725Z,10.95
2023-04-29T21:21:58.797Z,10.99
2023-04-29T21:24:28.733Z,10.91
2023-04-29T21:26:56.573Z,10.86
2023-04-29T21:29:24.336Z,10.83
2023-04-29T21:31:52.779Z,10.78
2023-04-29T21:34:20.624Z,10.74
2023-04-29T21:36:48.612Z,10.75
2023-04-29T21:39:16.704Z,10.65
2023-04-29T21:41:46.149Z,10.64
2023-04-29T21:44:14.605Z,10.61
2023-04-29T21:46:42.541Z,10.55
2023-04-29T21:49:10.686Z,10.55
2023-04-29T21:51:38.647Z,10.44
2023-04-29T21:54:08.488Z,10.46
2023-04-29T21:56:36.833Z,10.40
2023-04-29T21:59:06.449Z,10.39
2023-04-29T22:01:49.458Z,10.28
2023-04-29T22:04:17.549Z,10.13
2023-04-29T22:06:46.074Z,10.16
2023-04-29T22:09:14.005Z,10.17
2023-04-29T22:11:42.381Z,10.19
2023-04-29T22:14:11.730Z,10.16
2023-04-29T22:16:39.581Z,10.12
2023-04-29T22:19:07.618Z,10.10
2023-04-29T22:21:35.579Z,10.08
2023-04-29T22:24:03.347Z,10.07
2023-04-29T22:26:31.260Z,10.08
2023-04-29T22:28:59.074Z,10.04
2023-04-29T22:31:28.662Z,9.91
2023-04-29T22:33:56.467Z,9.93
2023-04-29T22:36:24.243Z,9.83
2023-04-29T22:38:52.483Z,9.81
2023-04-29T22:41:20.337Z,9.74
2023-04-29T22:43:48.257Z,9.78
2023-04-29T22:46:16.247Z,9.70
2023-04-29T22:48:45.586Z,9.69
2023-04-29T22:51:13.315Z,9.58
2023-04-29T22:53:41.079Z,9.61
2023-04-29T22:56:08.932Z,9.46
2023-04-29T22:58:36.856Z,9.47
2023-04-29T23:01:04.729Z,9.51
2023-04-29T23:03:32.510Z,9.44
2023-04-29T23:06:02.608Z,9.45
2023-04-29T23:08:30.592Z,9.38
2023-04-29T23:10:58.541Z,9.39
2023-04-29T23:13:26.504Z,9.43
2023-04-29T23:15:56.640Z,9.38
2023-04-29T23:18:24.623Z,9.36
2023-04-29T23:20:52.918Z,9.34
2023-04-29T23:23:22.190Z,9.37
2023-04-29T23:25:50.543Z,9.34
2023-04-29T23:28:18.423Z,9.29
2023-04-29T23:30:47.731Z,9.28
2023-04-29T23:33:15.743Z,9.23
2023-04-29T23:35:49.617Z,9.20
2023-04-29T23:38:17.583Z,9.24
2023-04-29T23:40:47.359Z,9.27
2023-04-29T23:43:15.779Z,9.19
2023-04-29T23:45:45.145Z,9.07
2023-04-29T23:48:13.344Z,9.10
2023-04-29T23:50:41.812Z,9.17
2023-04-29T23:53:09.686Z,9.11
2023-04-29T23:55:37.504Z,9.20
2023-04-29T23:58:07.655Z,9.10
